sensor_id;sensor_type;location;lat;lon;timestamp;P1;durP1;ratioP1;P2;durP2;ratioP2
71204;SDS011;58935;54.498;18.544;2022-08-02T00:01:22;3.20;;;1.90;;
71204;SDS011;58935;54.498;18.544;2022-08-02T00:03:47;6.50;;;2.60;;
71204;SDS011;58935;54.498;18.544;2022-08-02T00:06:13;3.60;;;2.80;;
71204;SDS011;58935;54.498;18.544;2022-08-02T00:08:38;4.70;;;2.60;;
71204;SDS011;58935;54.498;18.544;2022-08-02T00:11:04;2.50;;;2.30;;
71204;SDS011;58935;54.498;18.544;2022-08-02T00:13:29;4.30;;;2.70;;
71204;SDS011;58935;54.498;18.544;2022-08-02T00:15:55;5.20;;;2.40;;
71204;SDS011;58935;54.498;18.544;2022-08-02T00:18:20;2.80;;;2.30;;
71204;SDS011;58935;54.498;18.544;2022-08-02T00:20:45;3.90;;;2.50;;
71204;SDS011;58935;54.498;18.544;2022-08-02T00:23:11;3.00;;;2.80;;
71204;SDS011;58935;54.498;18.544;2022-08-02T00:25:36;3.20;;;2.60;;
71204;SDS011;58935;54.498;18.544;2022-08-02T00:28:02;4.10;;;2.50;;
71204;SDS011;58935;54.498;18.544;2022-08-02T00:30:27;6.90;;;2.50;;
71204;SDS011;58935;54.498;18.544;2022-08-02T00:32:53;5.20;;;2.70;;
71204;SDS011;58935;54.498;18.544;2022-08-02T00:35:18;3.70;;;2.60;;
71204;SDS011;58935;54.498;18.544;2022-08-02T00:37:44;2.80;;;2.50;;
71204;SDS011;58935;54.498;18.544;2022-08-02T00:40:10;3.00;;;2.60;;
71204;SDS011;58935;54.498;18.544;2022-08-02T00:42:37;3.60;;;2.70;;
71204;SDS011;58935;54.498;18.544;2022-08-02T00:45:04;4.00;;;2.70;;
71204;SDS011;58935;54.498;18.544;2022-08-02T00:47:30;5.20;;;2.80;;
71204;SDS011;58935;54.498;18.544;2022-08-02T00:49:56;3.50;;;3.10;;
71204;SDS011;58935;54.498;18.544;2022-08-02T00:52:22;3.20;;;2.60;;
71204;SDS011;58935;54.498;18.544;2022-08-02T00:54:49;4.60;;;2.80;;
71204;SDS011;58935;54.498;18.544;2022-08-02T00:57:14;6.00;;;3.50;;
71204;SDS011;58935;54.498;18.544;2022-08-02T00:59:40;3.50;;;2.90;;
71204;SDS011;58935;54.498;18.544;2022-08-02T01:02:07;3.50;;;3.20;;
71204;SDS011;58935;54.498;18.544;2022-08-02T01:04:33;5.20;;;3.10;;
71204;SDS011;58935;54.498;18.544;2022-08-02T01:06:59;3.10;;;2.90;;
71204;SDS011;58935;54.498;18.544;2022-08-02T01:09:28;3.60;;;3.30;;
71204;SDS011;58935;54.498;18.544;2022-08-02T01:11:54;5.50;;;3.50;;
71204;SDS011;58935;54.498;18.544;2022-08-02T01:14:21;6.50;;;3.20;;
71204;SDS011;58935;54.498;18.544;2022-08-02T01:16:58;4.50;;;3.30;;
71204;SDS011;58935;54.498;18.544;2022-08-02T01:22:51;5.20;;;3.30;;
71204;SDS011;58935;54.498;18.544;2022-08-02T01:28:38;4.60;;;3.00;;
71204;SDS011;58935;54.498;18.544;2022-08-02T01:31:15;4.20;;;3.20;;
71204;SDS011;58935;54.498;18.544;2022-08-02T01:33:51;4.80;;;3.40;;
71204;SDS011;58935;54.498;18.544;2022-08-02T01:36:25;5.60;;;3.20;;
71204;SDS011;58935;54.498;18.544;2022-08-02T01:38:59;3.70;;;3.20;;
71204;SDS011;58935;54.498;18.544;2022-08-02T01:41:28;4.00;;;3.20;;
71204;SDS011;58935;54.498;18.544;2022-08-02T01:43:58;3.50;;;3.00;;
71204;SDS011;58935;54.498;18.544;2022-08-02T01:46:26;4.80;;;3.40;;
71204;SDS011;58935;54.498;18.544;2022-08-02T01:48:56;4.50;;;3.10;;
71204;SDS011;58935;54.498;18.544;2022-08-02T01:51:26;3.80;;;3.00;;
71204;SDS011;58935;54.498;18.544;2022-08-02T01:53:56;7.20;;;3.10;;
71204;SDS011;58935;54.498;18.544;2022-08-02T01:56:22;2.90;;;2.70;;
71204;SDS011;58935;54.498;18.544;2022-08-02T01:58:48;3.70;;;2.90;;
71204;SDS011;58935;54.498;18.544;2022-08-02T02:01:15;6.00;;;3.30;;
71204;SDS011;58935;54.498;18.544;2022-08-02T02:03:43;5.60;;;2.90;;
71204;SDS011;58935;54.498;18.544;2022-08-02T02:06:11;9.20;;;3.40;;
71204;SDS011;58935;54.498;18.544;2022-08-02T02:08:38;8.00;;;3.60;;
71204;SDS011;58935;54.498;18.544;2022-08-02T02:11:06;6.60;;;3.30;;
71204;SDS011;58935;54.498;18.544;2022-08-02T02:13:33;5.90;;;2.70;;
71204;SDS011;58935;54.498;18.544;2022-08-02T02:16:03;7.90;;;3.50;;
71204;SDS011;58935;54.498;18.544;2022-08-02T02:18:31;5.40;;;2.80;;
71204;SDS011;58935;54.498;18.544;2022-08-02T02:23:28;3.80;;;2.40;;
71204;SDS011;58935;54.498;18.544;2022-08-02T02:25:54;9.30;;;2.50;;
71204;SDS011;58935;54.498;18.544;2022-08-02T02:28:24;9.00;;;3.00;;
71204;SDS011;58935;54.498;18.544;2022-08-02T02:31:02;3.20;;;2.90;;
71204;SDS011;58935;54.498;18.544;2022-08-02T02:33:43;6.90;;;2.80;;
71204;SDS011;58935;54.498;18.544;2022-08-02T02:36:15;3.40;;;2.50;;
71204;SDS011;58935;54.498;18.544;2022-08-02T02:38:43;8.40;;;2.80;;
71204;SDS011;58935;54.498;18.544;2022-08-02T02:41:11;5.00;;;2.70;;
71204;SDS011;58935;54.498;18.544;2022-08-02T02:43:39;4.50;;;2.80;;
71204;SDS011;58935;54.498;18.544;2022-08-02T02:46:07;5.40;;;2.40;;
71204;SDS011;58935;54.498;18.544;2022-08-02T02:48:35;12.90;;;2.60;;
71204;SDS011;58935;54.498;18.544;2022-08-02T02:51:03;5.20;;;2.40;;
71204;SDS011;58935;54.498;18.544;2022-08-02T02:53:30;8.40;;;2.90;;
71204;SDS011;58935;54.498;18.544;2022-08-02T02:55:57;7.20;;;2.90;;
71204;SDS011;58935;54.498;18.544;2022-08-02T02:58:24;8.80;;;2.80;;
71204;SDS011;58935;54.498;18.544;2022-08-02T03:00:50;4.40;;;2.50;;
71204;SDS011;58935;54.498;18.544;2022-08-02T03:03:20;6.90;;;2.70;;
71204;SDS011;58935;54.498;18.544;2022-08-02T03:05:46;6.30;;;2.60;;
71204;SDS011;58935;54.498;18.544;2022-08-02T03:08:12;5.30;;;2.60;;
71204;SDS011;58935;54.498;18.544;2022-08-02T03:10:38;4.80;;;2.70;;
71204;SDS011;58935;54.498;18.544;2022-08-02T03:13:04;5.70;;;2.40;;
71204;SDS011;58935;54.498;18.544;2022-08-02T03:15:30;8.60;;;2.80;;
71204;SDS011;58935;54.498;18.544;2022-08-02T03:17:56;9.30;;;2.90;;
71204;SDS011;58935;54.498;18.544;2022-08-02T03:20:22;5.30;;;2.80;;
71204;SDS011;58935;54.498;18.544;2022-08-02T03:22:49;7.60;;;2.70;;
71204;SDS011;58935;54.498;18.544;2022-08-02T03:25:16;5.70;;;2.70;;
71204;SDS011;58935;54.498;18.544;2022-08-02T03:27:42;8.50;;;3.00;;
71204;SDS011;58935;54.498;18.544;2022-08-02T03:30:10;6.10;;;2.60;;
71204;SDS011;58935;54.498;18.544;2022-08-02T03:32:39;5.10;;;2.70;;
71204;SDS011;58935;54.498;18.544;2022-08-02T03:35:08;7.20;;;2.30;;
71204;SDS011;58935;54.498;18.544;2022-08-02T03:37:36;11.10;;;2.60;;
71204;SDS011;58935;54.498;18.544;2022-08-02T03:40:06;7.90;;;2.60;;
71204;SDS011;58935;54.498;18.544;2022-08-02T03:42:33;5.20;;;1.90;;
71204;SDS011;58935;54.498;18.544;2022-08-02T03:45:01;5.70;;;2.10;;
71204;SDS011;58935;54.498;18.544;2022-08-02T03:47:28;6.50;;;2.70;;
71204;SDS011;58935;54.498;18.544;2022-08-02T03:49:55;5.70;;;2.50;;
71204;SDS011;58935;54.498;18.544;2022-08-02T03:52:22;6.40;;;2.60;;
71204;SDS011;58935;54.498;18.544;2022-08-02T03:54:49;9.20;;;2.40;;
71204;SDS011;58935;54.498;18.544;2022-08-02T03:57:15;11.10;;;2.40;;
71204;SDS011;58935;54.498;18.544;2022-08-02T03:59:42;10.70;;;2.70;;
71204;SDS011;58935;54.498;18.544;2022-08-02T04:02:10;4.30;;;2.10;;
71204;SDS011;58935;54.498;18.544;2022-08-02T04:04:36;13.60;;;3.00;;
71204;SDS011;58935;54.498;18.544;2022-08-02T04:07:03;9.10;;;2.70;;
71204;SDS011;58935;54.498;18.544;2022-08-02T04:09:29;6.90;;;2.40;;
71204;SDS011;58935;54.498;18.544;2022-08-02T04:11:54;11.90;;;2.60;;
71204;SDS011;58935;54.498;18.544;2022-08-02T04:14:20;5.40;;;2.10;;
71204;SDS011;58935;54.498;18.544;2022-08-02T04:16:51;7.10;;;2.50;;
71204;SDS011;58935;54.498;18.544;2022-08-02T04:19:26;8.60;;;2.80;;
71204;SDS011;58935;54.498;18.544;2022-08-02T04:21:57;6.50;;;2.30;;
71204;SDS011;58935;54.498;18.544;2022-08-02T04:24:27;4.90;;;2.00;;
71204;SDS011;58935;54.498;18.544;2022-08-02T04:26:57;5.60;;;2.40;;
71204;SDS011;58935;54.498;18.544;2022-08-02T04:29:25;7.90;;;2.80;;
71204;SDS011;58935;54.498;18.544;2022-08-02T04:31:52;4.30;;;1.80;;
71204;SDS011;58935;54.498;18.544;2022-08-02T04:34:19;7.50;;;2.30;;
71204;SDS011;58935;54.498;18.544;2022-08-02T04:36:45;9.30;;;2.40;;
71204;SDS011;58935;54.498;18.544;2022-08-02T04:39:12;5.10;;;2.10;;
71204;SDS011;58935;54.498;18.544;2022-08-02T04:41:42;9.10;;;2.70;;
71204;SDS011;58935;54.498;18.544;2022-08-02T04:44:11;7.60;;;2.90;;
71204;SDS011;58935;54.498;18.544;2022-08-02T04:46:38;9.20;;;2.10;;
71204;SDS011;58935;54.498;18.544;2022-08-02T04:49:05;7.60;;;2.30;;
71204;SDS011;58935;54.498;18.544;2022-08-02T04:51:35;7.50;;;2.30;;
71204;SDS011;58935;54.498;18.544;2022-08-02T04:54:02;4.00;;;1.40;;
71204;SDS011;58935;54.498;18.544;2022-08-02T04:56:28;5.40;;;2.10;;
71204;SDS011;58935;54.498;18.544;2022-08-02T04:58:54;9.20;;;2.40;;
71204;SDS011;58935;54.498;18.544;2022-08-02T05:01:19;8.70;;;2.40;;
71204;SDS011;58935;54.498;18.544;2022-08-02T05:03:45;10.90;;;2.00;;
71204;SDS011;58935;54.498;18.544;2022-08-02T05:06:10;6.30;;;2.20;;
71204;SDS011;58935;54.498;18.544;2022-08-02T05:08:35;4.60;;;2.00;;
71204;SDS011;58935;54.498;18.544;2022-08-02T05:11:01;8.90;;;1.90;;
71204;SDS011;58935;54.498;18.544;2022-08-02T05:13:26;7.70;;;2.40;;
71204;SDS011;58935;54.498;18.544;2022-08-02T05:15:52;7.20;;;1.90;;
71204;SDS011;58935;54.498;18.544;2022-08-02T05:18:17;5.80;;;1.60;;
71204;SDS011;58935;54.498;18.544;2022-08-02T05:20:43;4.80;;;1.80;;
71204;SDS011;58935;54.498;18.544;2022-08-02T05:23:08;7.40;;;1.80;;
71204;SDS011;58935;54.498;18.544;2022-08-02T05:25:34;7.50;;;1.50;;
71204;SDS011;58935;54.498;18.544;2022-08-02T05:27:59;10.60;;;2.50;;
71204;SDS011;58935;54.498;18.544;2022-08-02T05:30:25;6.00;;;1.90;;
71204;SDS011;58935;54.498;18.544;2022-08-02T05:32:50;7.70;;;2.20;;
71204;SDS011;58935;54.498;18.544;2022-08-02T05:35:21;3.10;;;1.80;;
71204;SDS011;58935;54.498;18.544;2022-08-02T05:37:50;13.10;;;2.10;;
71204;SDS011;58935;54.498;18.544;2022-08-02T05:40:16;7.30;;;1.70;;
71204;SDS011;58935;54.498;18.544;2022-08-02T05:42:42;5.80;;;1.30;;
71204;SDS011;58935;54.498;18.544;2022-08-02T05:45:09;7.40;;;2.00;;
71204;SDS011;58935;54.498;18.544;2022-08-02T05:47:36;8.70;;;2.10;;
71204;SDS011;58935;54.498;18.544;2022-08-02T05:50:05;6.20;;;1.80;;
71204;SDS011;58935;54.498;18.544;2022-08-02T05:55:41;4.30;;;1.60;;
71204;SDS011;58935;54.498;18.544;2022-08-02T06:00:54;5.90;;;1.70;;
71204;SDS011;58935;54.498;18.544;2022-08-02T06:03:24;6.20;;;1.50;;
71204;SDS011;58935;54.498;18.544;2022-08-02T06:05:59;5.90;;;1.70;;
71204;SDS011;58935;54.498;18.544;2022-08-02T06:08:43;8.30;;;1.40;;
71204;SDS011;58935;54.498;18.544;2022-08-02T06:11:13;7.90;;;1.70;;
71204;SDS011;58935;54.498;18.544;2022-08-02T06:13:41;7.20;;;1.50;;
71204;SDS011;58935;54.498;18.544;2022-08-02T06:16:07;4.00;;;1.70;;
71204;SDS011;58935;54.498;18.544;2022-08-02T06:18:34;8.40;;;2.00;;
71204;SDS011;58935;54.498;18.544;2022-08-02T06:21:03;6.00;;;1.90;;
71204;SDS011;58935;54.498;18.544;2022-08-02T06:23:31;6.20;;;1.70;;
71204;SDS011;58935;54.498;18.544;2022-08-02T06:25:57;4.90;;;1.60;;
71204;SDS011;58935;54.498;18.544;2022-08-02T06:28:24;7.50;;;1.30;;
71204;SDS011;58935;54.498;18.544;2022-08-02T06:30:51;7.50;;;1.70;;
71204;SDS011;58935;54.498;18.544;2022-08-02T06:33:17;6.80;;;1.80;;
71204;SDS011;58935;54.498;18.544;2022-08-02T06:38:21;6.40;;;1.50;;
71204;SDS011;58935;54.498;18.544;2022-08-02T06:43:37;5.70;;;1.30;;
71204;SDS011;58935;54.498;18.544;2022-08-02T06:46:11;12.00;;;1.80;;
71204;SDS011;58935;54.498;18.544;2022-08-02T06:48:36;9.60;;;1.70;;
71204;SDS011;58935;54.498;18.544;2022-08-02T06:51:03;8.00;;;1.70;;
71204;SDS011;58935;54.498;18.544;2022-08-02T06:53:29;4.20;;;1.40;;
71204;SDS011;58935;54.498;18.544;2022-08-02T06:55:54;6.30;;;1.50;;
71204;SDS011;58935;54.498;18.544;2022-08-02T06:58:20;6.90;;;1.60;;
71204;SDS011;58935;54.498;18.544;2022-08-02T07:00:46;4.10;;;1.30;;
71204;SDS011;58935;54.498;18.544;2022-08-02T07:03:12;5.80;;;2.00;;
71204;SDS011;58935;54.498;18.544;2022-08-02T07:05:39;7.20;;;1.50;;
71204;SDS011;58935;54.498;18.544;2022-08-02T07:08:06;8.30;;;2.20;;
71204;SDS011;58935;54.498;18.544;2022-08-02T07:10:32;11.00;;;1.60;;
71204;SDS011;58935;54.498;18.544;2022-08-02T07:12:58;9.40;;;1.70;;
71204;SDS011;58935;54.498;18.544;2022-08-02T07:15:23;10.40;;;1.80;;
71204;SDS011;58935;54.498;18.544;2022-08-02T07:17:48;4.70;;;1.40;;
71204;SDS011;58935;54.498;18.544;2022-08-02T07:20:15;8.20;;;1.80;;
71204;SDS011;58935;54.498;18.544;2022-08-02T07:22:40;10.60;;;1.70;;
71204;SDS011;58935;54.498;18.544;2022-08-02T07:25:06;6.10;;;1.80;;
71204;SDS011;58935;54.498;18.544;2022-08-02T07:27:33;7.70;;;1.80;;
71204;SDS011;58935;54.498;18.544;2022-08-02T07:29:59;6.30;;;1.50;;
71204;SDS011;58935;54.498;18.544;2022-08-02T07:32:29;5.90;;;1.10;;
71204;SDS011;58935;54.498;18.544;2022-08-02T07:34:57;8.00;;;1.40;;
71204;SDS011;58935;54.498;18.544;2022-08-02T07:37:27;5.60;;;1.40;;
71204;SDS011;58935;54.498;18.544;2022-08-02T07:39:54;6.20;;;1.40;;
71204;SDS011;58935;54.498;18.544;2022-08-02T07:42:20;4.50;;;1.20;;
71204;SDS011;58935;54.498;18.544;2022-08-02T07:44:46;4.50;;;0.90;;
71204;SDS011;58935;54.498;18.544;2022-08-02T07:47:12;3.20;;;1.30;;
71204;SDS011;58935;54.498;18.544;2022-08-02T07:49:37;4.60;;;1.30;;
71204;SDS011;58935;54.498;18.544;2022-08-02T07:52:03;5.40;;;1.60;;
71204;SDS011;58935;54.498;18.544;2022-08-02T07:54:29;10.90;;;1.70;;
71204;SDS011;58935;54.498;18.544;2022-08-02T07:56:54;7.50;;;1.50;;
71204;SDS011;58935;54.498;18.544;2022-08-02T07:59:20;3.50;;;1.00;;
71204;SDS011;58935;54.498;18.544;2022-08-02T08:01:47;9.50;;;1.50;;
71204;SDS011;58935;54.498;18.544;2022-08-02T08:04:14;5.90;;;1.30;;
71204;SDS011;58935;54.498;18.544;2022-08-02T08:06:41;6.90;;;1.40;;
71204;SDS011;58935;54.498;18.544;2022-08-02T08:09:08;5.40;;;1.30;;
71204;SDS011;58935;54.498;18.544;2022-08-02T08:11:35;6.80;;;1.30;;
71204;SDS011;58935;54.498;18.544;2022-08-02T08:14:01;10.20;;;1.90;;
71204;SDS011;58935;54.498;18.544;2022-08-02T08:16:26;11.60;;;1.50;;
71204;SDS011;58935;54.498;18.544;2022-08-02T08:18:54;4.20;;;1.50;;
71204;SDS011;58935;54.498;18.544;2022-08-02T08:21:21;8.00;;;1.80;;
71204;SDS011;58935;54.498;18.544;2022-08-02T08:23:46;5.90;;;1.50;;
71204;SDS011;58935;54.498;18.544;2022-08-02T08:26:12;5.70;;;1.50;;
71204;SDS011;58935;54.498;18.544;2022-08-02T08:28:37;3.30;;;1.30;;
71204;SDS011;58935;54.498;18.544;2022-08-02T08:31:03;7.30;;;1.70;;
71204;SDS011;58935;54.498;18.544;2022-08-02T08:33:28;6.00;;;1.80;;
71204;SDS011;58935;54.498;18.544;2022-08-02T08:35:54;3.90;;;1.60;;
71204;SDS011;58935;54.498;18.544;2022-08-02T08:38:21;7.50;;;1.50;;
71204;SDS011;58935;54.498;18.544;2022-08-02T08:40:50;10.10;;;1.40;;
71204;SDS011;58935;54.498;18.544;2022-08-02T08:43:16;9.60;;;1.50;;
71204;SDS011;58935;54.498;18.544;2022-08-02T08:45:44;4.90;;;1.50;;
71204;SDS011;58935;54.498;18.544;2022-08-02T08:48:12;4.30;;;1.20;;
71204;SDS011;58935;54.498;18.544;2022-08-02T08:50:46;5.80;;;1.40;;
71204;SDS011;58935;54.498;18.544;2022-08-02T08:53:16;3.90;;;1.20;;
71204;SDS011;58935;54.498;18.544;2022-08-02T08:55:44;4.80;;;1.50;;
71204;SDS011;58935;54.498;18.544;2022-08-02T08:58:10;5.00;;;1.70;;
71204;SDS011;58935;54.498;18.544;2022-08-02T09:00:37;4.40;;;1.50;;
71204;SDS011;58935;54.498;18.544;2022-08-02T09:03:06;8.50;;;1.20;;
71204;SDS011;58935;54.498;18.544;2022-08-02T09:05:37;5.50;;;1.30;;
71204;SDS011;58935;54.498;18.544;2022-08-02T09:08:04;4.20;;;1.20;;
71204;SDS011;58935;54.498;18.544;2022-08-02T09:10:41;6.40;;;1.60;;
71204;SDS011;58935;54.498;18.544;2022-08-02T09:13:21;4.10;;;1.40;;
71204;SDS011;58935;54.498;18.544;2022-08-02T09:15:57;7.10;;;1.60;;
71204;SDS011;58935;54.498;18.544;2022-08-02T09:18:34;8.20;;;1.40;;
71204;SDS011;58935;54.498;18.544;2022-08-02T09:21:04;6.50;;;1.50;;
71204;SDS011;58935;54.498;18.544;2022-08-02T09:23:35;4.80;;;1.20;;
71204;SDS011;58935;54.498;18.544;2022-08-02T09:26:04;5.10;;;1.50;;
71204;SDS011;58935;54.498;18.544;2022-08-02T09:28:33;5.50;;;1.20;;
71204;SDS011;58935;54.498;18.544;2022-08-02T09:31:05;2.90;;;1.40;;
71204;SDS011;58935;54.498;18.544;2022-08-02T09:33:33;5.70;;;1.30;;
71204;SDS011;58935;54.498;18.544;2022-08-02T09:36:05;9.80;;;1.60;;
71204;SDS011;58935;54.498;18.544;2022-08-02T09:38:33;2.80;;;1.00;;
71204;SDS011;58935;54.498;18.544;2022-08-02T09:41:02;8.20;;;1.70;;
71204;SDS011;58935;54.498;18.544;2022-08-02T09:43:41;5.20;;;1.30;;
71204;SDS011;58935;54.498;18.544;2022-08-02T09:46:09;4.10;;;1.10;;
71204;SDS011;58935;54.498;18.544;2022-08-02T09:51:10;6.10;;;1.50;;
71204;SDS011;58935;54.498;18.544;2022-08-02T09:53:36;4.40;;;1.20;;
71204;SDS011;58935;54.498;18.544;2022-08-02T09:56:01;3.20;;;1.20;;
71204;SDS011;58935;54.498;18.544;2022-08-02T09:58:29;5.30;;;1.10;;
71204;SDS011;58935;54.498;18.544;2022-08-02T10:00:56;9.00;;;1.20;;
71204;SDS011;58935;54.498;18.544;2022-08-02T10:03:23;8.70;;;1.70;;
71204;SDS011;58935;54.498;18.544;2022-08-02T10:05:52;8.40;;;1.40;;
71204;SDS011;58935;54.498;18.544;2022-08-02T10:08:19;8.60;;;1.50;;
71204;SDS011;58935;54.498;18.544;2022-08-02T10:10:46;4.40;;;1.70;;
71204;SDS011;58935;54.498;18.544;2022-08-02T10:13:12;8.20;;;1.60;;
71204;SDS011;58935;54.498;18.544;2022-08-02T10:15:39;4.30;;;1.40;;
71204;SDS011;58935;54.498;18.544;2022-08-02T10:18:06;3.60;;;1.30;;
71204;SDS011;58935;54.498;18.544;2022-08-02T10:20:39;2.00;;;1.10;;
71204;SDS011;58935;54.498;18.544;2022-08-02T10:23:10;3.20;;;1.70;;
71204;SDS011;58935;54.498;18.544;2022-08-02T10:25:38;5.20;;;1.50;;
71204;SDS011;58935;54.498;18.544;2022-08-02T10:28:05;5.60;;;1.20;;
71204;SDS011;58935;54.498;18.544;2022-08-02T10:30:35;4.60;;;1.30;;
71204;SDS011;58935;54.498;18.544;2022-08-02T10:33:05;5.50;;;1.10;;
71204;SDS011;58935;54.498;18.544;2022-08-02T10:35:36;5.80;;;1.20;;
71204;SDS011;58935;54.498;18.544;2022-08-02T10:38:06;9.40;;;1.40;;
71204;SDS011;58935;54.498;18.544;2022-08-02T10:43:12;5.40;;;1.10;;
71204;SDS011;58935;54.498;18.544;2022-08-02T10:46:20;3.30;;;1.00;;
71204;SDS011;58935;54.498;18.544;2022-08-02T10:51:56;5.50;;;1.40;;
71204;SDS011;58935;54.498;18.544;2022-08-02T10:54:25;8.70;;;1.80;;
71204;SDS011;58935;54.498;18.544;2022-08-02T10:56:54;7.00;;;1.40;;
71204;SDS011;58935;54.498;18.544;2022-08-02T10:59:30;6.40;;;1.60;;
71204;SDS011;58935;54.498;18.544;2022-08-02T11:02:02;7.20;;;1.50;;
71204;SDS011;58935;54.498;18.544;2022-08-02T11:04:32;5.50;;;1.80;;
71204;SDS011;58935;54.498;18.544;2022-08-02T11:07:34;6.60;;;1.60;;
71204;SDS011;58935;54.498;18.544;2022-08-02T11:13:07;6.60;;;1.50;;
71204;SDS011;58935;54.498;18.544;2022-08-02T11:15:51;4.70;;;1.20;;
71204;SDS011;58935;54.498;18.544;2022-08-02T11:18:20;7.00;;;1.60;;
71204;SDS011;58935;54.498;18.544;2022-08-02T11:23:50;6.40;;;1.40;;
71204;SDS011;58935;54.498;18.544;2022-08-02T11:29:11;8.70;;;2.00;;
71204;SDS011;58935;54.498;18.544;2022-08-02T11:31:39;11.20;;;1.50;;
71204;SDS011;58935;54.498;18.544;2022-08-02T11:34:09;4.00;;;1.20;;
71204;SDS011;58935;54.498;18.544;2022-08-02T11:36:48;5.40;;;2.20;;
71204;SDS011;58935;54.498;18.544;2022-08-02T11:39:17;9.90;;;1.60;;
71204;SDS011;58935;54.498;18.544;2022-08-02T11:41:50;9.40;;;1.70;;
71204;SDS011;58935;54.498;18.544;2022-08-02T11:44:18;6.70;;;1.70;;
71204;SDS011;58935;54.498;18.544;2022-08-02T11:46:52;4.90;;;1.60;;
71204;SDS011;58935;54.498;18.544;2022-08-02T11:49:19;7.10;;;1.50;;
71204;SDS011;58935;54.498;18.544;2022-08-02T11:51:57;4.70;;;1.40;;
71204;SDS011;58935;54.498;18.544;2022-08-02T11:54:33;9.60;;;1.20;;
71204;SDS011;58935;54.498;18.544;2022-08-02T11:57:14;3.10;;;1.20;;
71204;SDS011;58935;54.498;18.544;2022-08-02T11:59:42;5.30;;;1.30;;
71204;SDS011;58935;54.498;18.544;2022-08-02T12:02:11;8.60;;;1.70;;
71204;SDS011;58935;54.498;18.544;2022-08-02T12:04:38;4.40;;;1.60;;
71204;SDS011;58935;54.498;18.544;2022-08-02T12:07:05;5.20;;;1.20;;
71204;SDS011;58935;54.498;18.544;2022-08-02T12:09:32;7.80;;;1.50;;
71204;SDS011;58935;54.498;18.544;2022-08-02T12:12:00;5.10;;;1.60;;
71204;SDS011;58935;54.498;18.544;2022-08-02T12:14:28;6.80;;;1.60;;
71204;SDS011;58935;54.498;18.544;2022-08-02T12:16:56;5.60;;;1.60;;
71204;SDS011;58935;54.498;18.544;2022-08-02T12:19:25;4.80;;;1.20;;
71204;SDS011;58935;54.498;18.544;2022-08-02T12:22:11;8.70;;;2.20;;
71204;SDS011;58935;54.498;18.544;2022-08-02T12:24:45;5.70;;;1.60;;
71204;SDS011;58935;54.498;18.544;2022-08-02T12:29:58;3.50;;;1.30;;
71204;SDS011;58935;54.498;18.544;2022-08-02T12:32:26;6.80;;;1.60;;
71204;SDS011;58935;54.498;18.544;2022-08-02T12:35:05;6.20;;;1.50;;
71204;SDS011;58935;54.498;18.544;2022-08-02T12:37:46;9.30;;;1.70;;
71204;SDS011;58935;54.498;18.544;2022-08-02T12:40:19;7.10;;;1.40;;
71204;SDS011;58935;54.498;18.544;2022-08-02T12:45:28;7.60;;;1.70;;
71204;SDS011;58935;54.498;18.544;2022-08-02T12:47:57;5.50;;;1.50;;
71204;SDS011;58935;54.498;18.544;2022-08-02T12:50:31;2.90;;;1.20;;
71204;SDS011;58935;54.498;18.544;2022-08-02T12:53:07;5.80;;;1.50;;
71204;SDS011;58935;54.498;18.544;2022-08-02T12:58:05;3.70;;;1.40;;
71204;SDS011;58935;54.498;18.544;2022-08-02T13:00:35;8.50;;;1.50;;
71204;SDS011;58935;54.498;18.544;2022-08-02T13:03:03;6.50;;;1.60;;
71204;SDS011;58935;54.498;18.544;2022-08-02T13:05:30;5.90;;;1.50;;
71204;SDS011;58935;54.498;18.544;2022-08-02T13:07:59;12.00;;;1.60;;
71204;SDS011;58935;54.498;18.544;2022-08-02T13:10:24;5.80;;;1.40;;
71204;SDS011;58935;54.498;18.544;2022-08-02T13:12:51;8.80;;;1.90;;
71204;SDS011;58935;54.498;18.544;2022-08-02T13:15:18;5.60;;;1.20;;
71204;SDS011;58935;54.498;18.544;2022-08-02T13:17:45;8.00;;;1.60;;
71204;SDS011;58935;54.498;18.544;2022-08-02T13:20:11;6.60;;;1.50;;
71204;SDS011;58935;54.498;18.544;2022-08-02T13:22:38;7.70;;;2.00;;
71204;SDS011;58935;54.498;18.544;2022-08-02T13:25:05;6.10;;;1.40;;
71204;SDS011;58935;54.498;18.544;2022-08-02T13:27:30;3.60;;;1.20;;
71204;SDS011;58935;54.498;18.544;2022-08-02T13:29:56;5.70;;;1.40;;
71204;SDS011;58935;54.498;18.544;2022-08-02T13:32:23;5.40;;;1.40;;
71204;SDS011;58935;54.498;18.544;2022-08-02T13:34:50;7.10;;;1.50;;
71204;SDS011;58935;54.498;18.544;2022-08-02T13:37:16;11.50;;;1.60;;
71204;SDS011;58935;54.498;18.544;2022-08-02T13:39:42;7.30;;;2.00;;
71204;SDS011;58935;54.498;18.544;2022-08-02T13:42:08;10.70;;;1.90;;
71204;SDS011;58935;54.498;18.544;2022-08-02T13:44:34;7.50;;;1.40;;
71204;SDS011;58935;54.498;18.544;2022-08-02T13:47:00;6.90;;;1.70;;
71204;SDS011;58935;54.498;18.544;2022-08-02T13:49:27;6.20;;;1.70;;
71204;SDS011;58935;54.498;18.544;2022-08-02T13:51:52;8.80;;;1.60;;
71204;SDS011;58935;54.498;18.544;2022-08-02T13:54:18;6.10;;;1.50;;
71204;SDS011;58935;54.498;18.544;2022-08-02T13:56:43;5.80;;;1.40;;
71204;SDS011;58935;54.498;18.544;2022-08-02T13:59:09;7.70;;;1.90;;
71204;SDS011;58935;54.498;18.544;2022-08-02T14:01:35;10.80;;;1.50;;
71204;SDS011;58935;54.498;18.544;2022-08-02T14:04:00;7.20;;;1.20;;
71204;SDS011;58935;54.498;18.544;2022-08-02T14:06:26;7.00;;;1.60;;
71204;SDS011;58935;54.498;18.544;2022-08-02T14:08:51;4.50;;;1.50;;
71204;SDS011;58935;54.498;18.544;2022-08-02T14:11:17;4.20;;;1.40;;
71204;SDS011;58935;54.498;18.544;2022-08-02T14:13:43;4.40;;;1.30;;
71204;SDS011;58935;54.498;18.544;2022-08-02T14:16:09;5.10;;;1.50;;
71204;SDS011;58935;54.498;18.544;2022-08-02T14:18:35;3.50;;;1.30;;
71204;SDS011;58935;54.498;18.544;2022-08-02T14:21:02;6.30;;;1.20;;
71204;SDS011;58935;54.498;18.544;2022-08-02T14:23:27;3.90;;;1.30;;
71204;SDS011;58935;54.498;18.544;2022-08-02T14:25:55;3.90;;;1.10;;
71204;SDS011;58935;54.498;18.544;2022-08-02T14:28:21;7.90;;;1.60;;
71204;SDS011;58935;54.498;18.544;2022-08-02T14:30:47;3.70;;;1.40;;
71204;SDS011;58935;54.498;18.544;2022-08-02T14:33:12;6.00;;;1.70;;
71204;SDS011;58935;54.498;18.544;2022-08-02T14:35:38;9.10;;;2.00;;
71204;SDS011;58935;54.498;18.544;2022-08-02T14:38:03;8.40;;;2.00;;
71204;SDS011;58935;54.498;18.544;2022-08-02T14:40:29;5.60;;;1.70;;
71204;SDS011;58935;54.498;18.544;2022-08-02T14:42:54;5.80;;;1.30;;
71204;SDS011;58935;54.498;18.544;2022-08-02T14:45:20;3.50;;;1.20;;
71204;SDS011;58935;54.498;18.544;2022-08-02T14:47:47;5.90;;;1.60;;
71204;SDS011;58935;54.498;18.544;2022-08-02T14:50:14;5.30;;;1.60;;
71204;SDS011;58935;54.498;18.544;2022-08-02T14:52:43;5.10;;;1.20;;
71204;SDS011;58935;54.498;18.544;2022-08-02T14:55:09;3.80;;;1.60;;
71204;SDS011;58935;54.498;18.544;2022-08-02T14:57:35;5.80;;;1.50;;
71204;SDS011;58935;54.498;18.544;2022-08-02T15:00:01;5.40;;;1.40;;
71204;SDS011;58935;54.498;18.544;2022-08-02T15:02:26;7.00;;;1.50;;
71204;SDS011;58935;54.498;18.544;2022-08-02T15:04:52;6.40;;;1.60;;
71204;SDS011;58935;54.498;18.544;2022-08-02T15:07:18;4.70;;;1.20;;
71204;SDS011;58935;54.498;18.544;2022-08-02T15:09:44;6.60;;;1.40;;
71204;SDS011;58935;54.498;18.544;2022-08-02T15:12:10;6.30;;;1.60;;
71204;SDS011;58935;54.498;18.544;2022-08-02T15:14:38;6.90;;;1.30;;
71204;SDS011;58935;54.498;18.544;2022-08-02T15:17:05;4.30;;;1.20;;
71204;SDS011;58935;54.498;18.544;2022-08-02T15:19:32;5.70;;;1.20;;
71204;SDS011;58935;54.498;18.544;2022-08-02T15:21:58;6.90;;;1.40;;
71204;SDS011;58935;54.498;18.544;2022-08-02T15:24:24;4.10;;;1.30;;